Time;durP1;ratioP1;P1;durP2;ratioP2;P2;SDS_P1;SDS_P2;PMS_P1;PMS_P2;Temp;Humidity;BMP_temperature;BMP_pressure;BME280_temperature;BME280_humidity;BME280_pressure;Samples;Min_cycle;Max_cycle;Signal;HPM_P1;HPM_P2
2022/07/21 00:02:16;;;;;;;5.85;2.10;;;24.90;54.70;;;;;;5007866;28;20041;-56
2022/07/21 00:04:42;;;;;;;7.45;2.80;;;24.90;54.70;;;;;;5004061;28;20110;-55
2022/07/21 00:07:08;;;;;;;6.88;2.60;;;24.90;54.70;;;;;;5006502;28;20062;-57
2022/07/21 00:09:35;;;;;;;5.47;2.40;;;24.90;54.70;;;;;;5007246;28;20057;-56
2022/07/21 00:12:02;;;;;;;5.90;2.28;;;24.90;54.70;;;;;;5006773;28;20046;-56
2022/07/21 00:14:28;;;;;;;6.38;2.60;;;24.90;54.80;;;;;;5004577;28;20022;-57
2022/07/21 00:16:53;;;;;;;6.88;2.63;;;25.00;54.90;;;;;;5007257;28;20034;-56
2022/07/21 00:19:19;;;;;;;5.47;2.25;;;24.90;54.80;;;;;;5008158;28;20050;-55
2022/07/21 00:21:45;;;;;;;6.85;2.30;;;24.90;54.80;;;;;;5005398;28;20114;-55
2022/07/21 00:24:10;;;;;;;6.85;2.60;;;24.90;54.90;;;;;;5007697;28;20090;-56
2022/07/21 00:26:36;;;;;;;4.90;2.20;;;24.90;54.80;;;;;;5005356;28;20126;-56
2022/07/21 00:29:02;;;;;;;4.18;2.10;;;24.80;54.80;;;;;;5005541;28;20030;-55
2022/07/21 00:31:27;;;;;;;5.38;2.22;;;24.90;54.90;;;;;;5006117;28;20034;-56
2022/07/21 00:33:53;;;;;;;5.03;2.38;;;24.80;54.80;;;;;;5006498;28;20026;-56
2022/07/21 00:36:19;;;;;;;5.18;2.40;;;24.80;54.80;;;;;;5005928;28;20034;-56
2022/07/21 00:38:45;;;;;;;6.15;2.30;;;24.80;54.80;;;;;;5006137;28;20104;-55
2022/07/21 00:41:10;;;;;;;4.63;2.22;;;24.80;54.80;;;;;;5007888;28;20113;-56
2022/07/21 00:43:36;;;;;;;5.45;2.42;;;24.80;54.80;;;;;;5006816;28;20040;-55
2022/07/21 00:46:02;;;;;;;5.35;2.33;;;24.80;54.80;;;;;;5005651;28;20029;-56
2022/07/21 00:48:27;;;;;;;4.88;1.92;;;24.80;54.90;;;;;;5006276;28;20030;-55
2022/07/21 00:50:53;;;;;;;3.58;1.90;;;24.80;54.80;;;;;;5004699;28;20037;-56
2022/07/21 00:53:19;;;;;;;5.05;2.20;;;24.80;54.90;;;;;;5004740;28;20038;-55
2022/07/21 00:55:46;;;;;;;4.68;2.20;;;24.80;54.80;;;;;;5006503;28;20037;-56
2022/07/21 00:58:11;;;;;;;4.32;2.10;;;24.80;54.90;;;;;;5006952;28;20044;-56
2022/07/21 01:00:37;;;;;;;6.85;2.40;;;24.80;54.90;;;;;;5005791;28;20033;-56
2022/07/21 01:03:03;;;;;;;4.20;2.40;;;24.70;54.90;;;;;;5004963;28;20402;-56
2022/07/21 01:05:29;;;;;;;5.50;2.40;;;24.70;54.80;;;;;;5005699;28;20053;-55
2022/07/21 01:07:55;;;;;;;5.60;2.30;;;24.70;54.90;;;;;;5006181;28;20139;-56
2022/07/21 01:10:22;;;;;;;6.18;2.67;;;24.80;55.00;;;;;;5005183;28;20045;-55
2022/07/21 01:12:48;;;;;;;4.72;2.22;;;24.70;54.90;;;;;;5005909;28;20046;-56
2022/07/21 01:15:14;;;;;;;5.30;2.28;;;24.70;54.90;;;;;;5006112;28;20440;-56
2022/07/21 01:17:40;;;;;;;4.05;2.10;;;24.70;54.90;;;;;;5004643;28;20502;-55
2022/07/21 01:20:11;;;;;;;6.10;2.10;;;24.70;54.90;;;;;;5006067;28;20422;-56
2022/07/21 01:22:38;;;;;;;3.95;2.40;;;24.70;54.90;;;;;;5006201;28;20034;-56
2022/07/21 01:25:04;;;;;;;5.45;2.30;;;24.70;54.90;;;;;;5006067;28;20030;-55
2022/07/21 01:27:30;;;;;;;4.45;1.88;;;24.70;54.90;;;;;;5004495;28;20045;-56
2022/07/21 01:29:56;;;;;;;6.03;2.10;;;24.70;54.90;;;;;;5004940;28;20487;-56
2022/07/21 01:32:22;;;;;;;3.92;2.10;;;24.60;54.90;;;;;;5006101;28;20116;-55
2022/07/21 01:34:48;;;;;;;4.72;2.20;;;24.70;55.00;;;;;;5005394;28;20025;-56
2022/07/21 01:37:13;;;;;;;5.07;2.17;;;24.70;55.00;;;;;;5003399;28;20053;-56
2022/07/21 01:42:23;;;;;;;4.50;2.00;;;24.70;55.00;;;;;;5002379;28;20100;-56
2022/07/21 01:44:49;;;;;;;4.70;1.92;;;24.60;54.90;;;;;;5006393;28;20502;-56
2022/07/21 01:47:17;;;;;;;5.38;2.20;;;24.60;54.90;;;;;;5005345;28;20030;-56
2022/07/21 01:49:43;;;;;;;4.63;2.20;;;24.60;54.90;;;;;;5003800;28;20034;-55
2022/07/21 01:52:09;;;;;;;4.57;2.10;;;24.60;54.90;;;;;;5005777;28;20041;-55
2022/07/21 01:54:34;;;;;;;4.05;2.10;;;24.60;54.90;;;;;;5004533;28;20087;-56
2022/07/21 01:57:00;;;;;;;3.90;2.00;;;24.60;55.00;;;;;;5005902;28;20083;-55
2022/07/21 01:59:26;;;;;;;4.63;2.15;;;24.60;55.00;;;;;;5002856;28;20514;-56
2022/07/21 02:01:51;;;;;;;4.10;1.90;;;24.60;55.00;;;;;;5005431;28;20060;-56
2022/07/21 02:04:17;;;;;;;4.75;2.10;;;24.60;55.00;;;;;;5006873;28;20898;-56
2022/07/21 02:06:43;;;;;;;3.35;2.10;;;24.60;55.10;;;;;;5004571;28;20554;-55
2022/07/21 02:09:09;;;;;;;3.70;1.88;;;24.50;54.90;;;;;;5005173;28;20029;-56
2022/07/21 02:11:35;;;;;;;3.20;1.73;;;24.60;55.00;;;;;;5002926;28;20033;-55
2022/07/21 02:14:01;;;;;;;5.07;1.90;;;24.60;55.00;;;;;;5006524;28;20027;-56
2022/07/21 02:16:26;;;;;;;3.90;2.10;;;24.50;55.00;;;;;;5001807;28;20037;-55
2022/07/21 02:18:52;;;;;;;3.60;1.95;;;24.50;55.00;;;;;;5004764;28;20038;-55
2022/07/21 02:21:18;;;;;;;3.25;2.05;;;24.60;55.10;;;;;;5006170;28;20450;-55
2022/07/21 02:23:44;;;;;;;5.15;2.10;;;24.50;55.00;;;;;;5006037;28;20413;-55
2022/07/21 02:26:09;;;;;;;4.68;1.90;;;24.50;55.00;;;;;;5005241;28;20403;-56
2022/07/21 02:28:35;;;;;;;5.25;2.05;;;24.50;55.00;;;;;;5006003;28;20029;-56
2022/07/21 02:31:00;;;;;;;4.40;2.00;;;24.50;55.00;;;;;;5017049;28;20030;-55
2022/07/21 02:33:26;;;;;;;4.57;2.17;;;24.50;55.00;;;;;;5003599;28;20038;-55
2022/07/21 02:35:52;;;;;;;5.25;2.05;;;24.50;55.00;;;;;;5003534;28;20487;-56
2022/07/21 02:38:17;;;;;;;4.90;2.20;;;24.50;55.00;;;;;;5005732;28;20080;-55
2022/07/21 02:40:43;;;;;;;3.90;2.00;;;24.50;55.00;;;;;;5005090;28;20506;-56
2022/07/21 02:43:09;;;;;;;3.88;2.10;;;24.50;55.00;;;;;;5004545;28;20030;-56
2022/07/21 02:45:36;;;;;;;4.40;2.00;;;24.50;55.10;;;;;;5007039;28;20386;-55
2022/07/21 02:48:03;;;;;;;4.65;2.10;;;24.50;55.00;;;;;;5008275;28;20038;-55
2022/07/21 02:50:30;;;;;;;4.50;2.03;;;24.50;55.00;;;;;;5007106;28;20025;-56
2022/07/21 02:52:57;;;;;;;3.80;1.90;;;24.50;55.00;;;;;;5009315;28;20042;-55
2022/07/21 02:55:23;;;;;;;4.03;1.80;;;24.50;55.00;;;;;;5009586;28;20205;-55
2022/07/21 02:57:48;;;;;;;3.38;1.83;;;24.50;55.00;;;;;;5008048;28;20777;-56
2022/07/21 03:00:15;;;;;;;3.45;1.90;;;24.40;55.00;;;;;;5009641;28;20101;-55
2022/07/21 03:02:40;;;;;;;2.95;1.80;;;24.40;55.00;;;;;;5009447;28;20037;-55
2022/07/21 03:05:06;;;;;;;3.88;1.83;;;24.40;55.00;;;;;;5007679;28;20394;-55
2022/07/21 03:07:32;;;;;;;4.15;2.00;;;24.40;55.00;;;;;;5008096;28;20042;-55
2022/07/21 03:09:57;;;;;;;2.97;1.98;;;24.40;55.00;;;;;;5007424;28;20026;-56
2022/07/21 03:12:23;;;;;;;4.40;2.00;;;24.40;55.00;;;;;;5008052;28;20149;-55
2022/07/21 03:14:49;;;;;;;3.42;1.75;;;24.40;55.00;;;;;;5007963;28;20034;-55
2022/07/21 03:17:14;;;;;;;4.63;2.00;;;24.40;54.80;;;;;;5007445;28;20034;-55
2022/07/21 03:19:40;;;;;;;5.45;2.10;;;24.40;55.00;;;;;;5008632;28;20175;-55
2022/07/21 03:22:05;;;;;;;4.65;2.00;;;24.40;55.00;;;;;;5007323;28;20174;-55
2022/07/21 03:24:31;;;;;;;4.20;2.00;;;24.40;54.90;;;;;;5008075;28;20091;-55
2022/07/21 03:26:57;;;;;;;4.93;2.00;;;24.30;54.90;;;;;;5008539;28;20030;-55
2022/07/21 03:29:23;;;;;;;3.65;1.90;;;24.30;54.90;;;;;;5007675;28;20169;-55
2022/07/21 03:31:48;;;;;;;3.42;1.70;;;24.40;55.00;;;;;;5007316;28;20534;-56
2022/07/21 03:34:14;;;;;;;4.20;1.92;;;24.30;54.90;;;;;;5006815;28;20096;-55
2022/07/21 03:36:40;;;;;;;5.38;1.80;;;24.30;54.90;;;;;;5008411;28;20034;-56
2022/07/21 03:39:05;;;;;;;3.47;1.85;;;24.30;54.90;;;;;;5007192;28;20025;-55
2022/07/21 03:41:31;;;;;;;4.22;2.08;;;24.30;54.90;;;;;;5007645;28;20105;-55
2022/07/21 03:43:57;;;;;;;3.80;1.80;;;24.30;54.90;;;;;;5007941;28;20050;-56
2022/07/21 03:46:23;;;;;;;4.45;1.80;;;24.30;54.90;;;;;;5006618;28;20034;-55
2022/07/21 03:48:48;;;;;;;2.05;1.58;;;24.30;54.90;;;;;;5006473;28;20419;-55
2022/07/21 03:51:14;;;;;;;3.83;1.95;;;24.30;54.90;;;;;;5006591;28;20049;-55
2022/07/21 03:53:40;;;;;;;3.95;1.92;;;24.30;54.80;;;;;;5008938;28;20034;-55
2022/07/21 03:56:05;;;;;;;3.40;1.80;;;24.30;54.90;;;;;;5004775;28;20414;-55
2022/07/21 03:58:31;;;;;;;3.90;1.80;;;24.30;54.90;;;;;;5007865;28;20406;-56
2022/07/21 04:00:57;;;;;;;2.92;1.75;;;24.20;54.80;;;;;;5006370;28;20026;-55
2022/07/21 04:03:23;;;;;;;3.13;1.70;;;24.20;54.80;;;;;;5007738;28;20056;-55
2022/07/21 04:05:48;;;;;;;3.78;1.85;;;24.20;54.80;;;;;;5006460;28;20037;-56
2022/07/21 04:08:14;;;;;;;2.33;1.60;;;24.30;54.90;;;;;;5006359;28;20453;-55
2022/07/21 04:10:40;;;;;;;3.65;1.70;;;24.20;54.80;;;;;;5005370;28;20034;-56
2022/07/21 04:13:09;;;;;;;4.13;2.00;;;24.20;54.80;;;;;;5004650;28;20445;-55
2022/07/21 04:15:35;;;;;;;3.25;1.45;;;24.20;55.80;;;;;;5006118;28;20036;-55
2022/07/21 04:18:00;;;;;;;3.13;1.70;;;24.20;54.80;;;;;;5006272;28;20089;-56
2022/07/21 04:20:26;;;;;;;4.63;1.90;;;24.20;54.80;;;;;;4999778;28;20054;-55
2022/07/21 04:22:52;;;;;;;3.83;2.00;;;24.20;54.80;;;;;;5007428;28;20456;-55
2022/07/21 04:25:18;;;;;;;3.50;1.80;;;24.20;54.80;;;;;;5006358;28;20133;-56
2022/07/21 04:27:43;;;;;;;3.78;1.92;;;24.20;54.80;;;;;;5005715;28;20030;-55
2022/07/21 04:30:12;;;;;;;3.47;1.70;;;24.20;54.80;;;;;;5008704;28;20477;-55
2022/07/21 04:32:38;;;;;;;3.70;1.85;;;24.20;54.80;;;;;;5003902;28;20037;-56
2022/07/21 04:35:06;;;;;;;4.20;1.73;;;24.20;54.80;;;;;;5005770;28;20104;-55
2022/07/21 04:37:32;;;;;;;3.55;1.70;;;24.20;54.90;;;;;;5002170;28;20025;-55
2022/07/21 04:39:59;;;;;;;3.35;1.73;;;24.20;55.20;;;;;;5006238;28;20049;-55
2022/07/21 04:42:25;;;;;;;3.22;1.90;;;24.20;55.40;;;;;;5006354;28;20021;-55
2022/07/21 04:44:52;;;;;;;6.45;1.85;;;24.20;55.30;;;;;;5008459;28;20038;-55
2022/07/21 04:47:19;;;;;;;3.92;1.75;;;24.20;55.30;;;;;;5004848;28;20036;-55
2022/07/21 04:49:44;;;;;;;12.43;2.13;;;24.20;55.40;;;;;;5005928;28;20461;-55
2022/07/21 04:52:10;;;;;;;4.35;1.83;;;24.20;55.40;;;;;;5007087;28;20128;-55
2022/07/21 04:54:36;;;;;;;6.35;2.20;;;24.20;55.50;;;;;;5006771;28;20076;-55
2022/07/21 04:57:03;;;;;;;3.47;1.75;;;24.20;55.60;;;;;;5006163;28;20033;-55
2022/07/21 04:59:30;;;;;;;3.78;1.75;;;24.20;55.60;;;;;;5004165;28;20072;-55
2022/07/21 05:01:56;;;;;;;5.88;1.88;;;24.20;55.70;;;;;;5001820;28;20037;-55
2022/07/21 05:04:21;;;;;;;5.53;2.30;;;24.20;55.70;;;;;;5004112;28;23391;-55
2022/07/21 05:06:47;;;;;;;5.55;2.00;;;24.20;55.70;;;;;;5005346;28;20037;-55
2022/07/21 05:09:13;;;;;;;5.15;2.00;;;24.20;55.80;;;;;;5005734;28;20038;-55
2022/07/21 05:11:38;;;;;;;7.18;2.40;;;24.20;55.80;;;;;;5003396;28;20034;-55
2022/07/21 05:14:04;;;;;;;4.60;1.98;;;24.20;55.90;;;;;;5005306;28;20106;-53
2022/07/21 05:16:30;;;;;;;4.78;2.00;;;24.20;55.90;;;;;;5002333;28;20030;-53
2022/07/21 05:18:55;;;;;;;6.18;1.80;;;24.10;55.90;;;;;;5003500;28;20103;-54
2022/07/21 05:21:21;;;;;;;6.50;1.92;;;24.00;55.20;;;;;;5003447;28;20022;-53
2022/07/21 05:23:47;;;;;;;7.60;2.20;;;24.00;55.00;;;;;;5003571;28;20034;-54
2022/07/21 05:26:12;;;;;;;8.82;2.17;;;24.00;55.00;;;;;;5005532;28;20048;-53
2022/07/21 05:28:38;;;;;;;5.05;1.80;;;24.00;54.50;;;;;;5002907;28;20166;-52
2022/07/21 05:31:04;;;;;;;7.60;2.00;;;23.90;55.90;;;;;;5004669;28;20033;-53
2022/07/21 05:33:30;;;;;;;7.15;1.90;;;23.90;55.10;;;;;;5003431;28;20034;-54
2022/07/21 05:35:55;;;;;;;7.20;1.95;;;24.00;55.20;;;;;;5004961;28;20026;-55
2022/07/21 05:38:21;;;;;;;5.47;1.80;;;24.00;55.20;;;;;;5004902;28;20493;-55
2022/07/21 05:40:47;;;;;;;6.20;2.22;;;24.00;55.20;;;;;;5006647;28;20022;-55
2022/07/21 05:43:13;;;;;;;7.15;1.95;;;24.00;55.30;;;;;;5005263;28;20076;-54
2022/07/21 05:45:39;;;;;;;8.63;1.83;;;24.00;56.50;;;;;;5004461;28;20449;-53
2022/07/21 05:48:04;;;;;;;6.30;2.00;;;24.00;55.50;;;;;;5006139;28;20557;-54
2022/07/21 05:50:30;;;;;;;6.95;2.00;;;24.00;55.50;;;;;;5005439;28;20030;-55
2022/07/21 05:52:56;;;;;;;5.80;2.08;;;24.00;55.50;;;;;;5004222;28;20034;-54
2022/07/21 05:55:21;;;;;;;6.88;2.00;;;24.00;55.50;;;;;;5004502;28;20434;-55
2022/07/21 05:57:47;;;;;;;6.40;2.17;;;24.00;55.60;;;;;;5007414;28;20057;-54
2022/07/21 06:00:14;;;;;;;6.57;1.98;;;24.00;55.50;;;;;;5005353;28;20021;-55
2022/07/21 06:02:39;;;;;;;8.70;2.63;;;24.00;55.60;;;;;;5005315;28;20030;-55
2022/07/21 06:05:07;;;;;;;8.02;1.95;;;24.00;55.60;;;;;;5005775;28;20033;-55
2022/07/21 06:07:32;;;;;;;7.05;2.08;;;24.00;55.70;;;;;;5005902;28;20041;-54
2022/07/21 06:10:00;;;;;;;9.52;2.00;;;24.00;55.80;;;;;;5005677;28;20644;-55
2022/07/21 06:12:26;;;;;;;5.70;2.00;;;24.00;55.80;;;;;;5005411;28;20034;-54
2022/07/21 06:14:52;;;;;;;7.35;2.20;;;24.00;55.90;;;;;;5005494;28;20033;-54
2022/07/21 06:17:18;;;;;;;7.13;2.10;;;24.00;55.80;;;;;;5005102;28;20034;-53
2022/07/21 06:19:43;;;;;;;6.80;2.25;;;24.00;56.80;;;;;;5008294;28;20085;-54
2022/07/21 06:22:09;;;;;;;8.35;2.30;;;24.00;55.70;;;;;;5011972;28;20175;-54
2022/07/21 06:24:35;;;;;;;10.32;2.40;;;24.00;55.90;;;;;;5009949;28;20120;-54
2022/07/21 06:27:00;;;;;;;8.60;2.20;;;24.00;55.80;;;;;;5011695;28;20104;-54
2022/07/21 06:29:26;;;;;;;6.28;2.10;;;24.00;55.80;;;;;;5012120;28;20037;-54
2022/07/21 06:31:52;;;;;;;8.95;2.17;;;24.00;55.80;;;;;;5012439;28;20038;-55
2022/07/21 06:34:17;;;;;;;9.95;2.50;;;24.00;55.80;;;;;;5012313;28;20033;-55
2022/07/21 06:36:43;;;;;;;5.80;2.15;;;24.00;55.80;;;;;;5009819;28;20032;-55
2022/07/21 06:39:12;;;;;;;6.70;2.10;;;24.00;55.90;;;;;;5010792;28;20026;-55
2022/07/21 06:41:38;;;;;;;9.25;2.20;;;24.00;55.70;;;;;;5010842;28;20484;-52
2022/07/21 06:44:05;;;;;;;9.15;2.47;;;24.00;55.80;;;;;;5012593;28;20064;-54
2022/07/21 06:46:34;;;;;;;8.45;2.45;;;24.00;55.80;;;;;;5009725;28;20536;-54
2022/07/21 06:49:00;;;;;;;10.10;2.33;;;24.00;55.80;;;;;;5010922;28;20475;-54
2022/07/21 06:51:26;;;;;;;10.23;2.80;;;24.00;55.80;;;;;;5010732;28;20064;-54
2022/07/21 06:53:51;;;;;;;8.75;2.60;;;24.00;55.80;;;;;;5011600;28;20026;-54
2022/07/21 06:56:18;;;;;;;7.03;2.30;;;24.00;55.80;;;;;;5011788;28;20517;-54
2022/07/21 06:58:43;;;;;;;9.30;2.35;;;24.00;55.70;;;;;;5009790;28;20034;-54
2022/07/21 07:01:09;;;;;;;7.28;2.50;;;24.00;55.70;;;;;;5012150;28;20026;-55
2022/07/21 07:03:35;;;;;;;12.57;2.65;;;24.00;55.80;;;;;;5011500;28;20033;-54
2022/07/21 07:06:01;;;;;;;9.18;2.25;;;24.00;55.70;;;;;;5012258;28;20034;-54
2022/07/21 07:08:27;;;;;;;13.20;2.53;;;24.00;55.80;;;;;;5012365;28;20106;-53
2022/07/21 07:10:52;;;;;;;8.38;2.45;;;24.00;55.80;;;;;;5011919;28;20025;-53
2022/07/21 07:13:18;;;;;;;10.10;2.45;;;24.00;55.90;;;;;;5011011;28;20049;-55
2022/07/21 07:15:44;;;;;;;9.80;2.38;;;24.00;55.80;;;;;;5010541;28;20019;-54
2022/07/21 07:18:10;;;;;;;8.15;2.22;;;24.00;55.80;;;;;;5012192;28;20165;-55
2022/07/21 07:20:36;;;;;;;9.25;2.28;;;24.00;55.90;;;;;;5010638;28;20049;-54
2022/07/21 07:23:01;;;;;;;9.55;2.55;;;24.00;55.80;;;;;;5011048;28;20026;-54
2022/07/21 07:25:27;;;;;;;8.95;2.58;;;24.00;55.90;;;;;;5011410;28;20029;-54
2022/07/21 07:27:54;;;;;;;10.20;2.85;;;24.00;55.70;;;;;;5009229;28;20029;-55
2022/07/21 07:30:19;;;;;;;9.07;2.47;;;24.10;55.90;;;;;;5010434;28;20034;-53
2022/07/21 07:32:47;;;;;;;7.38;2.38;;;24.00;55.80;;;;;;5008892;28;20168;-54
2022/07/21 07:35:12;;;;;;;7.70;2.20;;;24.00;55.80;;;;;;5007142;28;20034;-55
2022/07/21 07:37:39;;;;;;;8.23;2.50;;;24.00;55.80;;;;;;5008187;28;20030;-54
2022/07/21 07:40:07;;;;;;;5.80;2.08;;;24.00;55.80;;;;;;5006453;28;20049;-54
2022/07/21 07:42:33;;;;;;;7.40;2.10;;;24.00;55.80;;;;;;5006756;28;20037;-55
2022/07/21 07:44:59;;;;;;;6.97;2.60;;;24.00;55.70;;;;;;5007961;28;20026;-54
2022/07/21 07:47:24;;;;;;;9.43;2.20;;;24.10;55.80;;;;;;5007160;28;20084;-55
2022/07/21 07:49:52;;;;;;;8.93;2.03;;;24.00;55.70;;;;;;5007938;28;20029;-55
2022/07/21 07:52:19;;;;;;;8.35;2.55;;;24.10;55.80;;;;;;5009815;28;20410;-54
2022/07/21 07:54:44;;;;;;;8.60;2.35;;;24.00;55.70;;;;;;5007972;28;20021;-55
2022/07/21 07:57:10;;;;;;;7.38;2.25;;;24.00;55.80;;;;;;5008674;28;20438;-54
2022/07/21 07:59:35;;;;;;;7.40;2.38;;;24.00;55.70;;;;;;5007541;28;20045;-52
2022/07/21 08:02:01;;;;;;;6.40;1.95;;;24.10;55.70;;;;;;5007045;28;20101;-53
2022/07/21 08:04:27;;;;;;;7.88;2.22;;;24.10;55.70;;;;;;5005748;28;20057;-54
2022/07/21 08:06:52;;;;;;;7.03;2.28;;;24.10;56.80;;;;;;5007550;28;20080;-53
2022/07/21 08:09:19;;;;;;;8.07;2.00;;;24.10;55.70;;;;;;5007438;28;20030;-55
2022/07/21 08:11:46;;;;;;;7.88;2.28;;;24.00;55.70;;;;;;5006695;28;20103;-54
2022/07/21 08:14:13;;;;;;;6.70;2.22;;;24.10;55.70;;;;;;5008414;28;20430;-52
2022/07/21 08:16:39;;;;;;;7.45;2.13;;;24.10;55.70;;;;;;5006985;28;20076;-53
2022/07/21 08:19:04;;;;;;;5.40;2.03;;;24.10;55.70;;;;;;5007140;28;20454;-53
2022/07/21 08:21:30;;;;;;;8.45;2.20;;;24.10;55.70;;;;;;5006780;28;20018;-53
2022/07/21 08:23:57;;;;;;;5.45;1.95;;;24.10;55.80;;;;;;5006404;28;20402;-55
2022/07/21 08:26:24;;;;;;;6.63;2.10;;;24.10;55.70;;;;;;5007003;28;20632;-54
2022/07/21 08:28:49;;;;;;;5.50;1.85;;;24.10;55.70;;;;;;5006634;28;20125;-54
2022/07/21 08:31:15;;;;;;;7.80;1.88;;;24.10;55.70;;;;;;5008587;28;20117;-55
2022/07/21 08:33:40;;;;;;;7.80;2.33;;;24.10;55.70;;;;;;5005003;28;20111;-54
2022/07/21 08:36:06;;;;;;;6.65;1.73;;;24.10;55.80;;;;;;5007467;28;20037;-54
2022/07/21 08:38:32;;;;;;;5.00;1.83;;;24.10;55.70;;;;;;5020290;28;20410;-53
2022/07/21 08:40:57;;;;;;;5.75;1.73;;;24.10;56.80;;;;;;5006903;28;20033;-54
2022/07/21 08:43:23;;;;;;;6.57;2.17;;;24.10;55.70;;;;;;5006861;28;20034;-53
2022/07/21 08:45:49;;;;;;;8.07;2.13;;;24.10;55.70;;;;;;5020725;28;20026;-55
2022/07/21 08:48:19;;;;;;;7.07;2.05;;;24.10;55.70;;;;;;5006599;28;20026;-54
2022/07/21 08:50:44;;;;;;;5.75;1.65;;;24.20;55.80;;;;;;5006001;28;20049;-53
2022/07/21 08:53:10;;;;;;;6.38;1.90;;;24.10;55.70;;;;;;5007788;28;20490;-53
2022/07/21 08:55:37;;;;;;;5.72;1.70;;;24.10;55.70;;;;;;5004653;28;20049;-53
2022/07/21 08:58:03;;;;;;;7.43;2.10;;;24.20;55.70;;;;;;5006036;28;20040;-54
2022/07/21 09:00:29;;;;;;;5.05;1.90;;;24.20;55.70;;;;;;5006513;28;20546;-53
2022/07/21 09:03:24;;;;;;;5.43;1.77;;;24.20;55.70;;;;;;5005930;28;20114;-54
2022/07/21 09:06:11;;;;;;;5.65;1.88;;;24.20;55.70;;;;;;4988612;28;20045;-53
2022/07/21 09:08:41;;;;;;;4.85;1.50;;;24.20;55.70;;;;;;5006248;28;20513;-53
2022/07/21 09:11:11;;;;;;;6.13;1.88;;;24.20;56.80;;;;;;5005014;28;20030;-53
2022/07/21 09:13:37;;;;;;;4.85;1.58;;;24.20;55.70;;;;;;5006373;28;20113;-52
2022/07/21 09:16:03;;;;;;;4.25;1.80;;;24.20;55.70;;;;;;5006178;28;20121;-53
2022/07/21 09:18:29;;;;;;;5.95;1.80;;;24.20;55.70;;;;;;5004829;28;20109;-54
2022/07/21 09:20:55;;;;;;;5.75;1.63;;;24.20;55.70;;;;;;4987742;28;20586;-55
2022/07/21 09:23:22;;;;;;;3.90;1.60;;;24.20;55.60;;;;;;5005106;28;20705;-53
2022/07/21 09:25:52;;;;;;;6.57;1.80;;;24.20;55.60;;;;;;5004780;28;20517;-54
2022/07/21 09:28:19;;;;;;;5.95;1.85;;;24.20;55.60;;;;;;5005807;28;20267;-54
2022/07/21 09:31:01;;;;;;;5.07;1.80;;;24.20;55.60;;;;;;5021732;28;20030;-54
2022/07/21 09:33:33;;;;;;;4.97;1.70;;;24.20;55.60;;;;;;5004339;28;20026;-54
2022/07/21 09:36:10;;;;;;;5.65;1.63;;;24.20;56.60;;;;;;5003898;28;20410;-53
2022/07/21 09:38:58;;;;;;;3.92;1.65;;;24.20;55.50;;;;;;5005556;28;20525;-54
2022/07/21 09:41:24;;;;;;;6.80;1.80;;;24.20;55.50;;;;;;5005897;28;20050;-53
2022/07/21 09:43:54;;;;;;;4.13;1.52;;;24.20;55.50;;;;;;5006772;28;20034;-53
2022/07/21 09:46:26;;;;;;;3.58;1.70;;;24.20;55.50;;;;;;5004546;28;20557;-53
2022/07/21 09:48:53;;;;;;;5.68;1.60;;;24.30;55.60;;;;;;5006683;28;20030;-54
2022/07/21 09:51:25;;;;;;;5.97;1.80;;;24.30;55.50;;;;;;5006777;28;20088;-54
2022/07/21 09:53:55;;;;;;;4.57;1.63;;;24.30;55.50;;;;;;5001446;28;20125;-54
2022/07/21 09:56:21;;;;;;;4.70;1.65;;;24.30;55.50;;;;;;5005631;28;20049;-51
2022/07/21 09:58:48;;;;;;;3.83;1.58;;;24.30;55.60;;;;;;5006824;28;20034;-52
2022/07/21 10:01:14;;;;;;;5.45;1.73;;;24.30;55.50;;;;;;5005777;28;20511;-54
2022/07/21 10:03:40;;;;;;;5.88;1.75;;;24.30;55.50;;;;;;5004886;28;20034;-53
2022/07/21 10:06:06;;;;;;;4.40;1.40;;;24.30;55.60;;;;;;5005666;28;20053;-54
2022/07/21 10:08:33;;;;;;;5.20;1.33;;;24.30;55.50;;;;;;5020042;28;20116;-55
2022/07/21 10:10:58;;;;;;;4.05;1.40;;;24.30;55.50;;;;;;5002868;28;20115;-54
2022/07/21 10:13:24;;;;;;;3.13;1.25;;;24.30;55.50;;;;;;5018555;28;20519;-53
2022/07/21 10:15:50;;;;;;;2.72;1.38;;;24.30;55.50;;;;;;5005477;28;20075;-54
2022/07/21 10:18:16;;;;;;;5.28;1.60;;;24.30;55.50;;;;;;5005470;28;20034;-54
2022/07/21 10:20:41;;;;;;;3.25;1.40;;;24.30;55.40;;;;;;5003876;28;20407;-54
2022/07/21 10:23:12;;;;;;;3.38;1.40;;;24.30;55.40;;;;;;4988938;28;20050;-54
2022/07/21 10:25:38;;;;;;;4.60;1.33;;;24.30;55.40;;;;;;5003099;28;20101;-54
2022/07/21 10:28:20;;;;;;;3.40;1.50;;;24.30;55.40;;;;;;5006226;28;20113;-52
2022/07/21 10:30:47;;;;;;;4.22;1.30;;;24.40;55.50;;;;;;5004209;28;20026;-54
2022/07/21 10:33:14;;;;;;;5.47;1.42;;;24.40;55.50;;;;;;5004519;28;20089;-53
2022/07/21 10:35:44;;;;;;;4.10;1.60;;;24.40;55.50;;;;;;5005137;28;20081;-53
2022/07/21 10:38:29;;;;;;;3.97;1.40;;;24.40;55.50;;;;;;5004660;28;20884;-54
2022/07/21 10:40:56;;;;;;;5.32;1.52;;;24.30;55.40;;;;;;5005589;28;20109;-53
2022/07/21 10:43:24;;;;;;;4.78;1.40;;;24.40;55.40;;;;;;5003786;28;20035;-54
2022/07/21 10:45:50;;;;;;;3.20;1.30;;;24.40;55.40;;;;;;5004342;28;20438;-55
2022/07/21 10:48:37;;;;;;;3.20;1.23;;;24.40;55.40;;;;;;5004952;28;20026;-54
2022/07/21 10:51:04;;;;;;;4.70;1.63;;;24.40;55.40;;;;;;5005392;28;20033;-54
2022/07/21 10:53:30;;;;;;;2.90;1.20;;;24.40;55.40;;;;;;5001294;28;20044;-53
2022/07/21 10:55:55;;;;;;;2.70;1.27;;;24.40;55.30;;;;;;5003827;28;20026;-54
2022/07/21 10:58:24;;;;;;;2.90;1.42;;;24.40;55.30;;;;;;5004936;28;20046;-53
2022/07/21 11:00:59;;;;;;;3.80;1.30;;;24.40;55.30;;;;;;5004873;28;20030;-54
2022/07/21 11:03:30;;;;;;;4.97;1.55;;;24.40;55.20;;;;;;5004996;28;20024;-54
2022/07/21 11:06:22;;;;;;;3.05;1.52;;;24.40;55.30;;;;;;5006175;28;20037;-54
2022/07/21 11:09:03;;;;;;;6.05;1.50;;;24.40;55.30;;;;;;5008611;28;20025;-53
2022/07/21 11:11:29;;;;;;;3.92;1.42;;;24.50;55.30;;;;;;5005676;28;20114;-56
2022/07/21 11:14:07;;;;;;;3.85;1.70;;;24.40;55.20;;;;;;5009951;28;20564;-53
2022/07/21 11:16:49;;;;;;;2.60;1.30;;;24.40;55.30;;;;;;5008622;28;20034;-53
2022/07/21 11:19:33;;;;;;;3.53;1.40;;;24.50;55.30;;;;;;5007244;28;20047;-55
2022/07/21 11:22:04;;;;;;;4.10;1.60;;;24.50;55.30;;;;;;5005877;28;20080;-52
2022/07/21 11:24:30;;;;;;;2.33;1.20;;;24.50;55.30;;;;;;5009297;28;20037;-56
2022/07/21 11:27:08;;;;;;;3.85;1.27;;;24.50;55.30;;;;;;5009243;28;20037;-54
2022/07/21 11:29:35;;;;;;;3.28;1.38;;;24.50;55.30;;;;;;5008781;28;20052;-54
2022/07/21 11:32:03;;;;;;;4.70;1.30;;;24.40;55.20;;;;;;5008441;28;20122;-53
2022/07/21 11:34:47;;;;;;;4.28;1.45;;;24.50;55.30;;;;;;5007764;28;20061;-54
2022/07/21 11:37:15;;;;;;;3.22;1.40;;;24.50;55.20;;;;;;5007780;28;20057;-54
2022/07/21 11:39:41;;;;;;;2.30;1.20;;;24.50;55.20;;;;;;5005367;28;20026;-54
2022/07/21 11:42:08;;;;;;;3.88;1.48;;;24.50;55.20;;;;;;5009734;28;20076;-53
2022/07/21 11:44:34;;;;;;;4.13;1.58;;;24.50;55.20;;;;;;5008879;28;20021;-53
2022/07/21 11:47:01;;;;;;;3.53;1.40;;;24.50;55.20;;;;;;5007112;28;20056;-54
2022/07/21 11:49:27;;;;;;;4.45;1.52;;;24.50;55.20;;;;;;5007313;28;20026;-53
2022/07/21 11:51:58;;;;;;;3.22;1.30;;;24.50;55.20;;;;;;5007507;28;20095;-54
2022/07/21 11:54:29;;;;;;;3.22;1.30;;;24.50;55.20;;;;;;5008068;28;20117;-52
2022/07/21 11:56:55;;;;;;;3.78;1.17;;;24.50;55.10;;;;;;5008261;28;20029;-54
2022/07/21 11:59:21;;;;;;;2.25;1.20;;;24.50;55.10;;;;;;5008139;28;20026;-53
2022/07/21 12:02:07;;;;;;;3.47;1.30;;;24.60;55.20;;;;;;5008108;28;20033;-53
2022/07/21 12:04:36;;;;;;;3.45;1.20;;;24.60;55.10;;;;;;5004668;28;20465;-52
2022/07/21 12:07:04;;;;;;;4.55;1.50;;;24.60;55.10;;;;;;5007115;28;20034;-54
2022/07/21 12:09:30;;;;;;;3.78;1.25;;;24.60;55.10;;;;;;5007532;28;20502;-53
2022/07/21 12:11:56;;;;;;;4.10;1.40;;;24.60;55.00;;;;;;5006923;28;21981;-54
2022/07/21 12:14:41;;;;;;;3.33;1.20;;;24.60;55.00;;;;;;5007496;28;20026;-54
2022/07/21 12:17:07;;;;;;;3.00;1.20;;;24.60;55.00;;;;;;5005215;28;20526;-53
2022/07/21 12:19:33;;;;;;;3.33;1.42;;;24.60;55.00;;;;;;5005958;28;20046;-54
2022/07/21 12:21:59;;;;;;;2.97;1.30;;;24.60;54.90;;;;;;5008412;28;20137;-53
2022/07/21 12:24:51;;;;;;;4.55;1.30;;;24.60;54.80;;;;;;5008352;28;20100;-54
2022/07/21 12:27:17;;;;;;;3.72;1.40;;;24.60;54.80;;;;;;5000084;28;20456;-53
2022/07/21 12:29:42;;;;;;;3.50;1.30;;;24.60;54.80;;;;;;5006866;28;20080;-54
2022/07/21 12:32:08;;;;;;;2.90;1.40;;;24.60;54.70;;;;;;5007653;28;20033;-55
2022/07/21 12:34:47;;;;;;;3.65;1.30;;;24.60;54.80;;;;;;5009541;28;20036;-55
2022/07/21 12:37:12;;;;;;;3.83;1.40;;;24.60;54.80;;;;;;5017844;28;20113;-53
2022/07/21 12:39:56;;;;;;;2.55;1.40;;;24.70;54.90;;;;;;5007272;28;20564;-52
2022/07/21 12:42:38;;;;;;;2.42;1.30;;;24.70;54.90;;;;;;5005461;28;20126;-53
2022/07/21 12:45:49;;;;;;;3.97;1.42;;;24.70;54.80;;;;;;5006304;28;20095;-53
2022/07/21 12:48:17;;;;;;;4.15;1.50;;;24.70;54.90;;;;;;5000212;28;20503;-54
2022/07/21 12:50:58;;;;;;;4.18;1.30;;;24.70;54.80;;;;;;5006086;28;20447;-53